sensor_id;sensor_type;location;lat;lon;timestamp;pressure;altitude;pressure_sealevel;temperature;humidity
72689;BME280;61053;52.166;4.506;2022-09-12T00:00:29;101742.09;;;17.00;78.79
72689;BME280;61053;52.166;4.506;2022-09-12T00:03:00;101737.72;;;16.87;78.97
72689;BME280;61053;52.166;4.506;2022-09-12T00:05:26;101737.59;;;16.78;79.77
72689;BME280;61053;52.166;4.506;2022-09-12T00:07:52;101732.94;;;16.68;79.81
72689;BME280;61053;52.166;4.506;2022-09-12T00:10:18;101736.66;;;16.79;79.74
72689;BME280;61053;52.166;4.506;2022-09-12T00:12:43;101737.25;;;16.82;79.67
72689;BME280;61053;52.166;4.506;2022-09-12T00:15:09;101734.88;;;16.78;79.48
72689;BME280;61053;52.166;4.506;2022-09-12T00:17:36;101730.72;;;16.85;79.32
72689;BME280;61053;52.166;4.506;2022-09-12T00:20:07;101732.56;;;16.73;80.17
72689;BME280;61053;52.166;4.506;2022-09-12T00:22:34;101733.31;;;16.64;80.48
72689;BME280;61053;52.166;4.506;2022-09-12T00:25:01;101729.75;;;16.75;79.65
72689;BME280;61053;52.166;4.506;2022-09-12T00:27:29;101730.97;;;16.71;79.74
72689;BME280;61053;52.166;4.506;2022-09-12T00:29:54;101728.56;;;16.79;80.11
72689;BME280;61053;52.166;4.506;2022-09-12T00:32:20;101722.41;;;16.77;80.04
72689;BME280;61053;52.166;4.506;2022-09-12T00:34:46;101727.56;;;16.80;79.37
72689;BME280;61053;52.166;4.506;2022-09-12T00:37:12;101726.19;;;16.85;78.60
72689;BME280;61053;52.166;4.506;2022-09-12T00:39:38;101714.31;;;16.77;79.64
72689;BME280;61053;52.166;4.506;2022-09-12T00:42:04;101724.09;;;16.89;79.86
72689;BME280;61053;52.166;4.506;2022-09-12T00:47:13;101716.50;;;16.83;79.39
72689;BME280;61053;52.166;4.506;2022-09-12T00:52:42;101728.63;;;16.77;78.47
72689;BME280;61053;52.166;4.506;2022-09-12T00:55:27;101724.34;;;16.75;79.06
72689;BME280;61053;52.166;4.506;2022-09-12T00:58:04;101718.31;;;16.94;77.56
72689;BME280;61053;52.166;4.506;2022-09-12T01:00:35;101706.72;;;16.82;78.39
72689;BME280;61053;52.166;4.506;2022-09-12T01:03:04;101706.91;;;16.90;77.90
72689;BME280;61053;52.166;4.506;2022-09-12T01:05:35;101718.41;;;17.03;77.12
72689;BME280;61053;52.166;4.506;2022-09-12T01:08:04;101708.47;;;17.04;76.33
72689;BME280;61053;52.166;4.506;2022-09-12T01:10:33;101708.47;;;17.04;76.79
72689;BME280;61053;52.166;4.506;2022-09-12T01:13:04;101705.19;;;17.00;76.52
72689;BME280;61053;52.166;4.506;2022-09-12T01:15:31;101707.44;;;16.73;77.98
72689;BME280;61053;52.166;4.506;2022-09-12T01:21:03;101698.97;;;16.88;77.95
72689;BME280;61053;52.166;4.506;2022-09-12T01:30:16;101696.50;;;16.85;76.97
72689;BME280;61053;52.166;4.506;2022-09-12T01:32:54;101701.97;;;16.52;77.81
72689;BME280;61053;52.166;4.506;2022-09-12T01:38:24;101694.34;;;16.68;77.47
72689;BME280;61053;52.166;4.506;2022-09-12T01:44:20;101683.91;;;16.75;77.62
72689;BME280;61053;52.166;4.506;2022-09-12T01:47:26;101678.16;;;16.79;77.26
72689;BME280;61053;52.166;4.506;2022-09-12T01:50:14;101680.09;;;16.77;77.08
72689;BME280;61053;52.166;4.506;2022-09-12T01:52:48;101677.03;;;16.71;77.59
72689;BME280;61053;52.166;4.506;2022-09-12T01:58:40;101663.72;;;16.58;78.26
72689;BME280;61053;52.166;4.506;2022-09-12T02:01:14;101659.91;;;16.60;77.67
72689;BME280;61053;52.166;4.506;2022-09-12T02:03:49;101667.56;;;16.33;78.25
72689;BME280;61053;52.166;4.506;2022-09-12T02:06:34;101663.28;;;16.30;78.02
72689;BME280;61053;52.166;4.506;2022-09-12T02:09:18;101657.00;;;16.41;77.76
72689;BME280;61053;52.166;4.506;2022-09-12T02:11:49;101661.69;;;16.39;77.99
72689;BME280;61053;52.166;4.506;2022-09-12T02:14:40;101653.38;;;16.19;78.31
72689;BME280;61053;52.166;4.506;2022-09-12T02:17:21;101652.59;;;16.40;78.48
72689;BME280;61053;52.166;4.506;2022-09-12T02:19:54;101654.31;;;16.41;78.53
72689;BME280;61053;52.166;4.506;2022-09-12T02:22:26;101656.22;;;16.18;78.09
72689;BME280;61053;52.166;4.506;2022-09-12T02:24:58;101646.84;;;16.33;78.45
72689;BME280;61053;52.166;4.506;2022-09-12T02:27:32;101646.94;;;16.43;78.46
72689;BME280;61053;52.166;4.506;2022-09-12T02:30:06;101645.69;;;16.58;77.70
72689;BME280;61053;52.166;4.506;2022-09-12T02:32:57;101636.00;;;16.67;76.96
72689;BME280;61053;52.166;4.506;2022-09-12T02:35:41;101642.81;;;16.71;76.48
72689;BME280;61053;52.166;4.506;2022-09-12T02:38:19;101639.66;;;16.66;77.20
72689;BME280;61053;52.166;4.506;2022-09-12T02:40:54;101631.72;;;16.10;78.99
72689;BME280;61053;52.166;4.506;2022-09-12T02:43:19;101632.88;;;16.39;78.90
72689;BME280;61053;52.166;4.506;2022-09-12T02:45:48;101637.13;;;16.53;77.70
72689;BME280;61053;52.166;4.506;2022-09-12T02:48:18;101632.47;;;16.55;77.53
72689;BME280;61053;52.166;4.506;2022-09-12T02:50:47;101632.06;;;16.60;77.74
72689;BME280;61053;52.166;4.506;2022-09-12T02:53:14;101639.78;;;16.64;77.26
72689;BME280;61053;52.166;4.506;2022-09-12T02:55:40;101625.31;;;16.65;77.20
72689;BME280;61053;52.166;4.506;2022-09-12T02:58:10;101631.03;;;16.40;77.55
72689;BME280;61053;52.166;4.506;2022-09-12T03:10:36;101624.59;;;16.63;76.50
72689;BME280;61053;52.166;4.506;2022-09-12T03:19:24;101607.75;;;16.71;75.62
72689;BME280;61053;52.166;4.506;2022-09-12T03:22:03;101606.28;;;16.46;76.01
72689;BME280;61053;52.166;4.506;2022-09-12T03:27:36;101607.25;;;16.77;75.46
72689;BME280;61053;52.166;4.506;2022-09-12T03:30:08;101601.13;;;16.75;75.99
72689;BME280;61053;52.166;4.506;2022-09-12T03:32:49;101598.88;;;16.48;76.10
72689;BME280;61053;52.166;4.506;2022-09-12T03:35:19;101608.00;;;16.36;76.61
72689;BME280;61053;52.166;4.506;2022-09-12T03:37:47;101602.69;;;16.45;76.88
72689;BME280;61053;52.166;4.506;2022-09-12T03:40:14;101604.50;;;16.56;76.25
72689;BME280;61053;52.166;4.506;2022-09-12T03:42:40;101596.19;;;16.48;76.21
72689;BME280;61053;52.166;4.506;2022-09-12T03:45:07;101593.91;;;16.64;75.96
72689;BME280;61053;52.166;4.506;2022-09-12T03:47:36;101597.19;;;16.47;76.25
72689;BME280;61053;52.166;4.506;2022-09-12T03:50:03;101596.31;;;16.58;76.11
72689;BME280;61053;52.166;4.506;2022-09-12T03:52:33;101598.66;;;16.51;76.25
72689;BME280;61053;52.166;4.506;2022-09-12T03:54:59;101594.72;;;16.12;77.25
72689;BME280;61053;52.166;4.506;2022-09-12T03:57:24;101595.06;;;16.30;77.48
72689;BME280;61053;52.166;4.506;2022-09-12T03:59:50;101600.56;;;16.28;77.04
72689;BME280;61053;52.166;4.506;2022-09-12T04:02:18;101594.78;;;16.33;76.32
72689;BME280;61053;52.166;4.506;2022-09-12T04:04:44;101598.00;;;16.15;76.69
72689;BME280;61053;52.166;4.506;2022-09-12T04:07:12;101593.16;;;15.98;78.00
72689;BME280;61053;52.166;4.506;2022-09-12T04:09:37;101601.53;;;16.27;76.79
72689;BME280;61053;52.166;4.506;2022-09-12T04:12:03;101597.16;;;16.15;77.47
72689;BME280;61053;52.166;4.506;2022-09-12T04:14:29;101592.34;;;16.30;76.90
72689;BME280;61053;52.166;4.506;2022-09-12T04:16:55;101588.91;;;16.39;76.70
72689;BME280;61053;52.166;4.506;2022-09-12T04:19:20;101585.84;;;16.32;77.16
72689;BME280;61053;52.166;4.506;2022-09-12T04:21:46;101587.94;;;16.17;77.05
72689;BME280;61053;52.166;4.506;2022-09-12T04:24:11;101586.38;;;16.03;78.48
72689;BME280;61053;52.166;4.506;2022-09-12T04:26:36;101584.41;;;16.17;78.38
72689;BME280;61053;52.166;4.506;2022-09-12T04:29:02;101591.28;;;16.21;77.63
72689;BME280;61053;52.166;4.506;2022-09-12T04:31:28;101593.97;;;16.21;78.06
72689;BME280;61053;52.166;4.506;2022-09-12T04:33:59;101580.50;;;16.21;77.73
72689;BME280;61053;52.166;4.506;2022-09-12T04:36:28;101585.53;;;16.14;79.03
72689;BME280;61053;52.166;4.506;2022-09-12T04:38:54;101586.91;;;15.97;78.32
72689;BME280;61053;52.166;4.506;2022-09-12T04:41:23;101585.59;;;15.80;79.20
72689;BME280;61053;52.166;4.506;2022-09-12T04:43:52;101586.66;;;15.89;78.96
72689;BME280;61053;52.166;4.506;2022-09-12T04:46:22;101588.50;;;15.89;79.32
72689;BME280;61053;52.166;4.506;2022-09-12T04:48:51;101592.41;;;15.85;79.96
72689;BME280;61053;52.166;4.506;2022-09-12T04:51:28;101580.56;;;15.76;79.76
72689;BME280;61053;52.166;4.506;2022-09-12T04:54:02;101584.13;;;15.76;79.20
72689;BME280;61053;52.166;4.506;2022-09-12T04:56:36;101585.78;;;15.66;80.11
72689;BME280;61053;52.166;4.506;2022-09-12T04:59:06;101585.06;;;15.41;81.57
72689;BME280;61053;52.166;4.506;2022-09-12T05:01:33;101589.72;;;15.62;80.68
72689;BME280;61053;52.166;4.506;2022-09-12T05:03:59;101582.91;;;15.80;79.70
72689;BME280;61053;52.166;4.506;2022-09-12T05:06:31;101587.91;;;15.74;79.86
72689;BME280;61053;52.166;4.506;2022-09-12T05:08:59;101593.16;;;15.87;79.69
72689;BME280;61053;52.166;4.506;2022-09-12T05:11:31;101583.75;;;15.81;80.18
72689;BME280;61053;52.166;4.506;2022-09-12T05:13:59;101585.44;;;15.93;79.58
72689;BME280;61053;52.166;4.506;2022-09-12T05:16:26;101581.91;;;15.81;79.91
72689;BME280;61053;52.166;4.506;2022-09-12T05:18:52;101572.88;;;15.71;80.47
72689;BME280;61053;52.166;4.506;2022-09-12T05:21:21;101573.34;;;15.76;81.06
72689;BME280;61053;52.166;4.506;2022-09-12T05:23:51;101572.22;;;15.56;80.83
72689;BME280;61053;52.166;4.506;2022-09-12T05:26:18;101573.72;;;15.72;80.88
72689;BME280;61053;52.166;4.506;2022-09-12T05:28:45;101564.78;;;15.71;80.64
72689;BME280;61053;52.166;4.506;2022-09-12T05:31:15;101556.94;;;15.57;80.59
72689;BME280;61053;52.166;4.506;2022-09-12T05:33:42;101561.72;;;15.76;80.35
72689;BME280;61053;52.166;4.506;2022-09-12T05:36:12;101565.72;;;15.59;80.44
72689;BME280;61053;52.166;4.506;2022-09-12T05:38:40;101563.53;;;15.64;80.77
72689;BME280;61053;52.166;4.506;2022-09-12T05:43:37;101559.38;;;15.60;81.44
72689;BME280;61053;52.166;4.506;2022-09-12T05:46:06;101566.81;;;15.68;80.80
72689;BME280;61053;52.166;4.506;2022-09-12T05:48:35;101565.25;;;15.76;80.61
72689;BME280;61053;52.166;4.506;2022-09-12T05:51:04;101576.16;;;15.86;79.75
72689;BME280;61053;52.166;4.506;2022-09-12T05:53:34;101574.56;;;15.72;80.71
72689;BME280;61053;52.166;4.506;2022-09-12T05:56:18;101569.63;;;15.66;80.22
72689;BME280;61053;52.166;4.506;2022-09-12T05:58:47;101571.25;;;15.69;80.46
72689;BME280;61053;52.166;4.506;2022-09-12T06:01:17;101577.25;;;15.72;80.50
72689;BME280;61053;52.166;4.506;2022-09-12T06:03:45;101577.38;;;15.82;79.66
72689;BME280;61053;52.166;4.506;2022-09-12T06:06:28;101560.97;;;15.85;80.33
72689;BME280;61053;52.166;4.506;2022-09-12T06:09:01;101567.31;;;15.84;79.91
72689;BME280;61053;52.166;4.506;2022-09-12T06:11:30;101573.19;;;15.89;79.99
72689;BME280;61053;52.166;4.506;2022-09-12T06:14:05;101566.97;;;15.77;80.23
72689;BME280;61053;52.166;4.506;2022-09-12T06:16:33;101565.25;;;15.88;80.74
72689;BME280;61053;52.166;4.506;2022-09-12T06:19:03;101569.06;;;15.85;80.63
72689;BME280;61053;52.166;4.506;2022-09-12T06:21:31;101564.72;;;15.94;80.00
72689;BME280;61053;52.166;4.506;2022-09-12T06:23:59;101558.97;;;15.98;80.38
72689;BME280;61053;52.166;4.506;2022-09-12T06:26:26;101557.94;;;16.11;79.32
72689;BME280;61053;52.166;4.506;2022-09-12T06:28:54;101551.94;;;16.18;78.59
72689;BME280;61053;52.166;4.506;2022-09-12T06:31:24;101552.06;;;16.17;79.35
72689;BME280;61053;52.166;4.506;2022-09-12T06:33:55;101552.44;;;16.12;79.70
72689;BME280;61053;52.166;4.506;2022-09-12T06:36:29;101558.53;;;16.25;79.12
72689;BME280;61053;52.166;4.506;2022-09-12T06:39:00;101554.09;;;16.36;78.11
72689;BME280;61053;52.166;4.506;2022-09-12T06:41:29;101559.56;;;16.45;78.07
72689;BME280;61053;52.166;4.506;2022-09-12T06:43:56;101567.91;;;16.42;77.89
72689;BME280;61053;52.166;4.506;2022-09-12T06:46:23;101569.53;;;16.34;78.68
72689;BME280;61053;52.166;4.506;2022-09-12T06:48:50;101567.91;;;16.42;78.35
72689;BME280;61053;52.166;4.506;2022-09-12T06:51:17;101573.84;;;16.57;79.11
72689;BME280;61053;52.166;4.506;2022-09-12T06:53:45;101577.81;;;16.53;78.16
72689;BME280;61053;52.166;4.506;2022-09-12T06:56:13;101568.28;;;16.70;77.19
72689;BME280;61053;52.166;4.506;2022-09-12T06:58:41;101572.44;;;16.42;78.79
72689;BME280;61053;52.166;4.506;2022-09-12T07:01:13;101569.41;;;16.35;78.48
72689;BME280;61053;52.166;4.506;2022-09-12T07:03:41;101575.53;;;16.37;78.88
72689;BME280;61053;52.166;4.506;2022-09-12T07:06:12;101580.41;;;16.43;78.78
72689;BME280;61053;52.166;4.506;2022-09-12T07:08:40;101574.88;;;16.45;78.72
72689;BME280;61053;52.166;4.506;2022-09-12T07:13:40;101577.81;;;16.53;78.53
72689;BME280;61053;52.166;4.506;2022-09-12T07:16:07;101576.31;;;16.60;78.61
72689;BME280;61053;52.166;4.506;2022-09-12T07:18:35;101579.97;;;16.59;78.69
72689;BME280;61053;52.166;4.506;2022-09-12T07:21:06;101570.63;;;16.63;79.12
72689;BME280;61053;52.166;4.506;2022-09-12T07:23:38;101584.25;;;16.94;78.32
72689;BME280;61053;52.166;4.506;2022-09-12T07:26:04;101577.22;;;17.03;77.95
72689;BME280;61053;52.166;4.506;2022-09-12T07:28:31;101576.19;;;17.25;76.86
72689;BME280;61053;52.166;4.506;2022-09-12T07:31:04;101582.59;;;17.03;77.71
72689;BME280;61053;52.166;4.506;2022-09-12T07:33:31;101569.94;;;17.24;77.87
72689;BME280;61053;52.166;4.506;2022-09-12T07:36:00;101566.94;;;17.48;77.53
72689;BME280;61053;52.166;4.506;2022-09-12T07:38:33;101569.56;;;17.69;76.53
72689;BME280;61053;52.166;4.506;2022-09-12T07:41:00;101568.38;;;17.83;74.59
72689;BME280;61053;52.166;4.506;2022-09-12T07:43:26;101570.59;;;17.78;75.65
72689;BME280;61053;52.166;4.506;2022-09-12T07:45:56;101568.25;;;17.85;75.69
72689;BME280;61053;52.166;4.506;2022-09-12T07:48:21;101563.41;;;17.88;75.06
72689;BME280;61053;52.166;4.506;2022-09-12T07:50:56;101577.97;;;17.66;76.20
72689;BME280;61053;52.166;4.506;2022-09-12T07:53:33;101572.66;;;17.55;77.04
72689;BME280;61053;52.166;4.506;2022-09-12T07:56:01;101565.91;;;17.70;77.05
72689;BME280;61053;52.166;4.506;2022-09-12T07:58:30;101568.72;;;17.69;77.39
72689;BME280;61053;52.166;4.506;2022-09-12T08:01:04;101556.63;;;18.04;75.39
72689;BME280;61053;52.166;4.506;2022-09-12T08:03:31;101558.03;;;17.98;76.76
72689;BME280;61053;52.166;4.506;2022-09-12T08:08:37;101566.66;;;18.52;75.71
72689;BME280;61053;52.166;4.506;2022-09-12T08:11:04;101567.03;;;18.38;74.31
72689;BME280;61053;52.166;4.506;2022-09-12T08:13:33;101565.63;;;18.53;73.88
72689;BME280;61053;52.166;4.506;2022-09-12T08:16:01;101569.22;;;18.83;72.45
72689;BME280;61053;52.166;4.506;2022-09-12T08:18:30;101566.78;;;18.80;73.57
72689;BME280;61053;52.166;4.506;2022-09-12T08:21:01;101567.63;;;18.90;71.62
72689;BME280;61053;52.166;4.506;2022-09-12T08:23:28;101573.59;;;19.13;71.48
72689;BME280;61053;52.166;4.506;2022-09-12T08:25:56;101563.75;;;19.02;70.76
72689;BME280;61053;52.166;4.506;2022-09-12T08:28:26;101569.03;;;19.04;70.56
72689;BME280;61053;52.166;4.506;2022-09-12T08:30:52;101575.28;;;19.14;69.62
72689;BME280;61053;52.166;4.506;2022-09-12T08:33:18;101569.44;;;19.09;69.61
72689;BME280;61053;52.166;4.506;2022-09-12T08:35:45;101565.88;;;19.18;69.76
72689;BME280;61053;52.166;4.506;2022-09-12T08:38:11;101564.19;;;19.45;69.03
72689;BME280;61053;52.166;4.506;2022-09-12T08:40:50;101566.22;;;19.80;66.94
72689;BME280;61053;52.166;4.506;2022-09-12T08:47:21;101576.00;;;21.16;62.26
72689;BME280;61053;52.166;4.506;2022-09-12T08:52:58;101571.34;;;20.82;63.58
72689;BME280;61053;52.166;4.506;2022-09-12T08:58:08;101565.59;;;20.50;64.53
72689;BME280;61053;52.166;4.506;2022-09-12T09:01:10;101562.84;;;20.59;64.16
72689;BME280;61053;52.166;4.506;2022-09-12T09:04:15;101562.44;;;20.72;64.65
72689;BME280;61053;52.166;4.506;2022-09-12T09:10:16;101557.97;;;20.53;63.29
72689;BME280;61053;52.166;4.506;2022-09-12T09:18:31;101546.34;;;20.79;63.27
72689;BME280;61053;52.166;4.506;2022-09-12T09:21:02;101549.81;;;20.63;63.04
72689;BME280;61053;52.166;4.506;2022-09-12T09:23:45;101539.66;;;20.65;63.82
72689;BME280;61053;52.166;4.506;2022-09-12T09:26:22;101545.88;;;20.83;63.23
72689;BME280;61053;52.166;4.506;2022-09-12T09:29:38;101542.56;;;20.72;63.29
72689;BME280;61053;52.166;4.506;2022-09-12T09:31:51;101534.41;;;20.72;63.18
72689;BME280;61053;52.166;4.506;2022-09-12T09:34:21;101528.38;;;20.60;62.41
72689;BME280;61053;52.166;4.506;2022-09-12T09:37:18;101521.66;;;20.64;63.67
72689;BME280;61053;52.166;4.506;2022-09-12T09:45:25;101514.38;;;20.91;61.80
72689;BME280;61053;52.166;4.506;2022-09-12T09:47:58;101509.44;;;21.12;60.75
72689;BME280;61053;52.166;4.506;2022-09-12T09:50:30;101505.44;;;21.33;60.14
72689;BME280;61053;52.166;4.506;2022-09-12T09:52:58;101501.47;;;21.45;60.12
72689;BME280;61053;52.166;4.506;2022-09-12T09:55:33;101495.97;;;21.71;58.43
72689;BME280;61053;52.166;4.506;2022-09-12T09:58:05;101499.88;;;21.77;57.92
72689;BME280;61053;52.166;4.506;2022-09-12T10:00:32;101499.81;;;21.52;57.99
72689;BME280;61053;52.166;4.506;2022-09-12T10:06:00;101495.75;;;21.64;57.42
72689;BME280;61053;52.166;4.506;2022-09-12T10:08:36;101494.72;;;21.65;58.17
72689;BME280;61053;52.166;4.506;2022-09-12T10:11:06;101503.97;;;21.81;57.13
72689;BME280;61053;52.166;4.506;2022-09-12T10:14:04;101491.53;;;21.70;56.14
72689;BME280;61053;52.166;4.506;2022-09-12T10:16:52;101484.50;;;21.51;57.27
72689;BME280;61053;52.166;4.506;2022-09-12T10:19:23;101483.00;;;21.57;56.72
72689;BME280;61053;52.166;4.506;2022-09-12T10:22:01;101478.75;;;21.62;56.68
72689;BME280;61053;52.166;4.506;2022-09-12T10:24:35;101484.78;;;21.82;56.86
72689;BME280;61053;52.166;4.506;2022-09-12T10:29:44;101483.44;;;22.03;56.84
72689;BME280;61053;52.166;4.506;2022-09-12T10:32:24;101484.19;;;22.29;55.32
72689;BME280;61053;52.166;4.506;2022-09-12T10:35:03;101478.00;;;22.85;53.18
72689;BME280;61053;52.166;4.506;2022-09-12T10:37:35;101472.50;;;23.17;53.15
72689;BME280;61053;52.166;4.506;2022-09-12T10:40:06;101482.66;;;23.40;52.16
72689;BME280;61053;52.166;4.506;2022-09-12T10:42:49;101475.25;;;24.57;49.34
72689;BME280;61053;52.166;4.506;2022-09-12T10:45:30;101477.84;;;24.89;47.69
72689;BME280;61053;52.166;4.506;2022-09-12T10:48:01;101468.09;;;25.90;44.93
72689;BME280;61053;52.166;4.506;2022-09-12T10:50:46;101466.69;;;27.83;41.18
72689;BME280;61053;52.166;4.506;2022-09-12T10:54:01;101471.84;;;28.26;38.93
72689;BME280;61053;52.166;4.506;2022-09-12T10:56:17;101465.03;;;27.95;39.66
72689;BME280;61053;52.166;4.506;2022-09-12T10:59:12;101471.66;;;28.81;37.45
72689;BME280;61053;52.166;4.506;2022-09-12T11:02:07;101470.44;;;30.25;36.05
72689;BME280;61053;52.166;4.506;2022-09-12T11:05:06;101462.28;;;31.61;32.51
72689;BME280;61053;52.166;4.506;2022-09-12T11:08:24;101464.63;;;32.06;32.02
72689;BME280;61053;52.166;4.506;2022-09-12T11:20:02;101449.59;;;31.05;32.32
72689;BME280;61053;52.166;4.506;2022-09-12T11:31:10;101446.72;;;30.49;34.25
72689;BME280;61053;52.166;4.506;2022-09-12T11:33:49;101457.56;;;30.13;35.79
72689;BME280;61053;52.166;4.506;2022-09-12T11:41:45;101448.16;;;32.00;32.32
72689;BME280;61053;52.166;4.506;2022-09-12T11:44:28;101443.66;;;32.99;31.08
72689;BME280;61053;52.166;4.506;2022-09-12T11:47:04;101442.22;;;30.74;34.13
72689;BME280;61053;52.166;4.506;2022-09-12T11:49:44;101441.22;;;32.09;32.75
72689;BME280;61053;52.166;4.506;2022-09-12T11:52:19;101434.34;;;33.29;30.77
72689;BME280;61053;52.166;4.506;2022-09-12T11:57:43;101420.97;;;31.18;33.78
72689;BME280;61053;52.166;4.506;2022-09-12T12:00:18;101426.59;;;31.60;32.89
72689;BME280;61053;52.166;4.506;2022-09-12T12:05:36;101419.63;;;32.29;31.33
72689;BME280;61053;52.166;4.506;2022-09-12T12:08:07;101417.72;;;31.58;32.34
72689;BME280;61053;52.166;4.506;2022-09-12T12:10:40;101423.47;;;32.64;31.08
72689;BME280;61053;52.166;4.506;2022-09-12T12:13:20;101420.91;;;33.21;30.33
72689;BME280;61053;52.166;4.506;2022-09-12T12:15:55;101413.00;;;34.50;28.48
72689;BME280;61053;52.166;4.506;2022-09-12T12:18:27;101409.91;;;35.07;26.77
72689;BME280;61053;52.166;4.506;2022-09-12T12:20:55;101410.44;;;34.82;27.58
72689;BME280;61053;52.166;4.506;2022-09-12T12:23:39;101412.44;;;34.31;29.38
72689;BME280;61053;52.166;4.506;2022-09-12T12:26:40;101409.56;;;33.63;29.44
72689;BME280;61053;52.166;4.506;2022-09-12T12:29:43;101395.47;;;32.72;29.98
72689;BME280;61053;52.166;4.506;2022-09-12T12:34:42;101392.13;;;36.06;25.69
72689;BME280;61053;52.166;4.506;2022-09-12T12:50:34;101389.09;;;32.59;30.69
72689;BME280;61053;52.166;4.506;2022-09-12T12:53:05;101389.75;;;30.62;33.34
72689;BME280;61053;52.166;4.506;2022-09-12T12:58:28;101374.38;;;33.35;29.18
72689;BME280;61053;52.166;4.506;2022-09-12T13:01:12;101370.13;;;34.79;29.04
72689;BME280;61053;52.166;4.506;2022-09-12T13:03:43;101377.09;;;35.48;27.24
72689;BME280;61053;52.166;4.506;2022-09-12T13:11:42;101361.56;;;35.79;27.08
72689;BME280;61053;52.166;4.506;2022-09-12T13:14:32;101355.25;;;35.07;25.74
72689;BME280;61053;52.166;4.506;2022-09-12T13:17:05;101365.56;;;36.63;24.57
72689;BME280;61053;52.166;4.506;2022-09-12T13:19:35;101359.50;;;35.64;25.69
72689;BME280;61053;52.166;4.506;2022-09-12T13:22:07;101363.44;;;34.97;27.62
72689;BME280;61053;52.166;4.506;2022-09-12T13:24:54;101355.69;;;34.99;27.39
72689;BME280;61053;52.166;4.506;2022-09-12T13:27:22;101345.63;;;36.92;24.11
72689;BME280;61053;52.166;4.506;2022-09-12T13:30:07;101347.72;;;36.64;24.80
72689;BME280;61053;52.166;4.506;2022-09-12T13:32:37;101341.38;;;38.19;23.59
72689;BME280;61053;52.166;4.506;2022-09-12T13:35:12;101333.88;;;36.80;23.36
72689;BME280;61053;52.166;4.506;2022-09-12T13:37:54;101327.31;;;36.06;24.60
72689;BME280;61053;52.166;4.506;2022-09-12T13:41:00;101326.53;;;34.75;25.43
72689;BME280;61053;52.166;4.506;2022-09-12T13:43:56;101326.03;;;36.66;24.79
72689;BME280;61053;52.166;4.506;2022-09-12T13:46:31;101333.91;;;36.32;24.06
72689;BME280;61053;52.166;4.506;2022-09-12T13:49:00;101327.78;;;33.32;26.80
72689;BME280;61053;52.166;4.506;2022-09-12T13:52:15;101323.44;;;32.55;29.98
72689;BME280;61053;52.166;4.506;2022-09-12T13:54:47;101315.59;;;31.93;29.29
72689;BME280;61053;52.166;4.506;2022-09-12T13:57:36;101317.38;;;31.33;30.08
72689;BME280;61053;52.166;4.506;2022-09-12T14:00:12;101311.84;;;31.33;30.64
72689;BME280;61053;52.166;4.506;2022-09-12T14:02:42;101317.28;;;31.10;30.51
72689;BME280;61053;52.166;4.506;2022-09-12T14:05:19;101316.41;;;31.82;29.56
72689;BME280;61053;52.166;4.506;2022-09-12T14:07:59;101308.69;;;31.60;29.76
72689;BME280;61053;52.166;4.506;2022-09-12T14:10:34;101308.66;;;31.48;29.91
72689;BME280;61053;52.166;4.506;2022-09-12T14:13:04;101314.31;;;32.07;29.54
72689;BME280;61053;52.166;4.506;2022-09-12T14:15:37;101308.78;;;29.62;34.24
72689;BME280;61053;52.166;4.506;2022-09-12T14:18:05;101297.28;;;28.24;34.93
72689;BME280;61053;52.166;4.506;2022-09-12T14:20:37;101305.06;;;28.53;35.96
72689;BME280;61053;52.166;4.506;2022-09-12T14:23:17;101312.13;;;27.96;36.91
72689;BME280;61053;52.166;4.506;2022-09-12T14:25:48;101300.69;;;27.59;38.07
72689;BME280;61053;52.166;4.506;2022-09-12T14:28:16;101305.75;;;28.29;37.26
72689;BME280;61053;52.166;4.506;2022-09-12T14:42:46;101284.88;;;26.51;40.35
72689;BME280;61053;52.166;4.506;2022-09-12T14:45:56;101281.19;;;27.27;39.86
72689;BME280;61053;52.166;4.506;2022-09-12T14:48:45;101289.31;;;26.94;39.63
72689;BME280;61053;52.166;4.506;2022-09-12T14:51:31;101283.16;;;26.44;42.25
72689;BME280;61053;52.166;4.506;2022-09-12T14:57:03;101297.81;;;26.64;40.96
72689;BME280;61053;52.166;4.506;2022-09-12T15:05:17;101283.19;;;25.66;41.77
72689;BME280;61053;52.166;4.506;2022-09-12T15:07:59;101281.00;;;26.04;42.17
72689;BME280;61053;52.166;4.506;2022-09-12T15:10:36;101281.75;;;26.55;40.75
72689;BME280;61053;52.166;4.506;2022-09-12T15:15:40;101269.44;;;26.37;40.82
72689;BME280;61053;52.166;4.506;2022-09-12T15:18:07;101274.16;;;26.22;40.43
72689;BME280;61053;52.166;4.506;2022-09-12T15:20:48;101270.00;;;25.98;41.80
72689;BME280;61053;52.166;4.506;2022-09-12T15:25:57;101274.97;;;25.66;43.09
72689;BME280;61053;52.166;4.506;2022-09-12T15:28:23;101268.88;;;25.42;43.69
72689;BME280;61053;52.166;4.506;2022-09-12T15:30:52;101276.09;;;25.72;43.25
72689;BME280;61053;52.166;4.506;2022-09-12T15:33:25;101267.28;;;25.76;43.30
72689;BME280;61053;52.166;4.506;2022-09-12T15:35:51;101264.69;;;25.68;43.44
72689;BME280;61053;52.166;4.506;2022-09-12T15:38:20;101266.97;;;25.64;43.28
72689;BME280;61053;52.166;4.506;2022-09-12T15:40:49;101268.66;;;25.65;43.04
72689;BME280;61053;52.166;4.506;2022-09-12T15:43:18;101272.41;;;25.86;42.63
72689;BME280;61053;52.166;4.506;2022-09-12T15:45:44;101266.03;;;26.00;42.64
72689;BME280;61053;52.166;4.506;2022-09-12T15:48:13;101270.75;;;26.13;43.09
72689;BME280;61053;52.166;4.506;2022-09-12T15:50:40;101261.81;;;26.32;41.90
72689;BME280;61053;52.166;4.506;2022-09-12T15:53:12;101253.69;;;26.11;43.38
72689;BME280;61053;52.166;4.506;2022-09-12T15:55:40;101244.59;;;25.82;43.78
72689;BME280;61053;52.166;4.506;2022-09-12T15:58:07;101248.63;;;25.58;44.30
72689;BME280;61053;52.166;4.506;2022-09-12T16:00:34;101235.88;;;25.22;44.69